地図

経路データ

SID SEASON NUMBER BASIN SUBBASIN NAME ISO_TIME NATURE LAT LON WMO_WIND WMO_PRES WMO_AGENCY TRACK_TYPE DIST2LAND LANDFALL IFLAG USA_AGENCY USA_ATCF_ID USA_LAT USA_LON USA_RECORD USA_STATUS USA_WIND USA_PRES USA_SSHS USA_R34_NE USA_R34_SE USA_R34_SW USA_R34_NW USA_R50_NE USA_R50_SE USA_R50_SW USA_R50_NW USA_R64_NE USA_R64_SE USA_R64_SW USA_R64_NW USA_POCI USA_ROCI USA_RMW USA_EYE TOKYO_LAT TOKYO_LON TOKYO_GRADE TOKYO_WIND TOKYO_PRES TOKYO_R50_DIR TOKYO_R50_LONG TOKYO_R50_SHORT TOKYO_R30_DIR TOKYO_R30_LONG TOKYO_R30_SHORT TOKYO_LAND CMA_LAT CMA_LON CMA_CAT CMA_WIND CMA_PRES HKO_LAT HKO_LON HKO_CAT HKO_WIND HKO_PRES NEWDELHI_LAT NEWDELHI_LON NEWDELHI_GRADE NEWDELHI_WIND NEWDELHI_PRES NEWDELHI_CI NEWDELHI_DP NEWDELHI_POCI REUNION_LAT REUNION_LON REUNION_TYPE REUNION_WIND REUNION_PRES REUNION_TNUM REUNION_CI REUNION_RMW REUNION_R34_NE REUNION_R34_SE REUNION_R34_SW REUNION_R34_NW REUNION_R50_NE REUNION_R50_SE REUNION_R50_SW REUNION_R50_NW REUNION_R64_NE REUNION_R64_SE REUNION_R64_SW REUNION_R64_NW BOM_LAT BOM_LON BOM_TYPE BOM_WIND BOM_PRES BOM_TNUM BOM_CI BOM_RMW BOM_R34_NE BOM_R34_SE BOM_R34_SW BOM_R34_NW BOM_R50_NE BOM_R50_SE BOM_R50_SW BOM_R50_NW BOM_R64_NE BOM_R64_SE BOM_R64_SW BOM_R64_NW BOM_ROCI BOM_POCI BOM_EYE BOM_POS_METHOD BOM_PRES_METHOD NADI_LAT NADI_LON NADI_CAT NADI_WIND NADI_PRES WELLINGTON_LAT WELLINGTON_LON WELLINGTON_WIND WELLINGTON_PRES DS824_LAT DS824_LON DS824_STAGE DS824_WIND DS824_PRES TD9636_LAT TD9636_LON TD9636_STAGE TD9636_WIND TD9636_PRES TD9635_LAT TD9635_LON TD9635_WIND TD9635_PRES TD9635_ROCI NEUMANN_LAT NEUMANN_LON NEUMANN_CLASS NEUMANN_WIND NEUMANN_PRES MLC_LAT MLC_LON MLC_CLASS MLC_WIND MLC_PRES USA_GUST BOM_GUST BOM_GUST_PER REUNION_GUST REUNION_GUST_PER USA_SEAHGT USA_SEARAD_NE USA_SEARAD_SE USA_SEARAD_SW USA_SEARAD_NW STORM_SPEED STORM_DIR
1889200N21089 1889 7 NI BB NOT_NAMED 1889-07-19 00:00:00 TS 21.0000 88.8000 main 67 67 _________O____ -1 21.0000 88.8000 TC 30 1 297
1889200N21089 1889 7 NI BB NOT_NAMED 1889-07-19 03:00:00 TS 21.0250 88.7416 main 70 56 _________PO___ -1 21.0375 88.7125 TC 30 21.0000 88.8000 1 2 300
1889200N21089 1889 7 NI BB NOT_NAMED 1889-07-19 06:00:00 TS 21.0971 88.6178 main 56 44 _________OP___ -1 21.1000 88.6000 TC 30 21.0927 88.6445 1 3 303
1889200N21089 1889 7 NI BB NOT_NAMED 1889-07-19 09:00:00 TS 21.1907 88.4719 main 44 33 _________PP___ -1 21.2000 88.4500 TC 30 21.1782 88.5010 1 3 304
1889200N21089 1889 7 NI BB NOT_NAMED 1889-07-19 12:00:00 TS 21.2748 88.3410 main 33 33 _________OP___ -1 21.3000 88.3000 TC 30 21.2496 88.3821 1 2 303
1889200N21089 1889 7 NI BB NOT_NAMED 1889-07-19 15:00:00 TS 21.3250 88.2500 main 33 22 _________PO___ -1 21.3500 88.1999 TC 30 21.3000 88.3000 1 2 301
1889200N21089 1889 7 NI BB NOT_NAMED 1889-07-19 18:00:00 TS 21.3647 88.1775 main 22 22 _________OP___ -1 21.4000 88.1000 TC 30 21.3294 88.2549 1 2 303
1889200N21089 1889 7 NI BB NOT_NAMED 1889-07-19 21:00:00 TS 21.4102 88.1111 main 24 23 _________PP___ -1 21.4546 88.0245 TC 30 21.3659 88.1977 1 3 305
1889200N21089 1889 7 NI BB NOT_NAMED 1889-07-20 00:00:00 TS 21.5222 87.9334 main 24 0 _________OP___ -1 21.6000 87.8000 TC 30 21.4445 88.0667 1 6 303
1889200N21089 1889 7 NI BB NOT_NAMED 1889-07-20 03:00:00 TS 21.7564 87.5377 main 0 0 _________PO___ -1 21.9127 87.2753 TC 30 21.6000 87.8000 1 11 302
1889200N21089 1889 7 NI BB NOT_NAMED 1889-07-20 06:00:00 TS 22.0841 86.9559 main 0 0 _________OP___ -1 22.3000 86.6000 TC 30 21.8682 87.3119 1 13 301
1889200N21089 1889 7 NI BB NOT_NAMED 1889-07-20 09:00:00 TS 22.4346 86.3220 main 0 0 _________PP___ -1 22.6573 85.9573 TC 30 22.2119 86.6867 1 14 301
1889200N21089 1889 7 NI BB NOT_NAMED 1889-07-20 12:00:00 TS 22.7997 85.6464 main 0 0 _________OP___ -1 23.0000 85.3000 TC 30 22.5994 85.9929 1 14 299
1889200N21089 1889 7 NI BB NOT_NAMED 1889-07-20 15:00:00 TS 23.1425 84.9635 main 0 0 _________PO___ -1 23.2850 84.6270 TC 31 23.0000 85.3000 1 14 300
1889200N21089 1889 7 NI BB NOT_NAMED 1889-07-20 18:00:00 TS 23.5025 84.3154 main 0 0 _________OP___ -1 23.6000 84.0000 TC 32 23.4049 84.6308 1 14 305
1889200N21089 1889 7 NI BB NOT_NAMED 1889-07-20 21:00:00 TS 23.9418 83.7027 main 0 0 _________PP___ -1 24.0725 83.4181 TC 33 23.8110 83.9872 1 13 310
1889200N21089 1889 7 NI BB NOT_NAMED 1889-07-21 00:00:00 TS 24.3432 83.2124 main 0 0 _________OP___ -1 24.5000 83.0000 TC 34 24.1864 83.4247 1 10 312
1889200N21089 1889 7 NI BB NOT_NAMED 1889-07-21 03:00:00 TS 24.5974 82.9159 main 0 0 _________PO___ -1 24.6947 82.8319 TC 36 24.5000 83.0000 2 6 317
1889200N21089 1889 7 NI BB NOT_NAMED 1889-07-21 06:00:00 TS 24.7587 82.7876 main 0 0 _________OP___ -1 24.8000 82.8000 TC 39 24.7173 82.7751 2 4 330
1889200N21089 1889 7 NI BB NOT_NAMED 1889-07-21 09:00:00 TS 24.9155 82.7163 main 0 0 _________PP___ -1 24.9575 82.7425 TC 42 24.8734 82.6902 2 3 343
1889200N21089 1889 7 NI BB NOT_NAMED 1889-07-21 12:00:00 TS 25.0464 82.6926 main 0 0 _________OP___ -1 25.1000 82.7000 TC 45 24.9929 82.6852 2 2 351
1889200N21089 1889 7 NI BB NOT_NAMED 1889-07-21 15:00:00 TS 25.1500 82.6750 main 0 0 _________PO___ -1 25.2000 82.6500 TC 41 25.1000 82.7000 3 2 348
1889200N21089 1889 7 NI BB NOT_NAMED 1889-07-21 18:00:00 TS 25.2512 82.6490 main 0 0 _________OP___ -1 25.3000 82.6000 TC 37 25.2146 82.6858 3 2 344
1889200N21089 1889 7 NI BB NOT_NAMED 1889-07-21 21:00:00 TS 25.3779 82.6046 main 0 0 _________PP___ -1 25.4375 82.5500 TC 33 25.3381 82.6410 3 3 342
1889200N21089 1889 7 NI BB NOT_NAMED 1889-07-22 00:00:00 TS 25.5117 82.5505 main 0 0 _________OP___ -1 25.6000 82.5000 TC 30 25.4676 82.5757 3 2 336
1889200N21089 1889 7 NI BB NOT_NAMED 1889-07-22 03:00:00 NR 25.6000 82.5000 main 0 __________O___ -1 TC 25.6000 82.5000 1 2 336

IBTrACS Databaseについて

本データベースは、米国NOAAが公開する1842年以降の世界の熱帯低気圧のベストトラックデータアーカイブInternational Best Track Archive for Climate Stewardship (IBTrACS)を、ウェブで閲覧しやすい形式に変換したものです。

最終更新日:2021-10-19